createdAt,value
2023-01-29T00:00:20.130Z,11.85
2023-01-29T00:02:48.645Z,11.93
2023-01-29T00:05:27.840Z,14.10
2023-01-29T00:07:57.302Z,14.88
2023-01-29T00:10:26.950Z,15.43
2023-01-29T00:12:55.848Z,14.50
2023-01-29T00:15:24.483Z,16.15
2023-01-29T00:17:53.044Z,12.88
2023-01-29T00:20:22.989Z,13.43
2023-01-29T00:22:51.446Z,12.50
2023-01-29T00:25:19.898Z,11.07
2023-01-29T00:27:48.383Z,12.90
2023-01-29T00:30:19.767Z,11.77
2023-01-29T00:32:48.911Z,12.50
2023-01-29T00:35:17.575Z,11.15
2023-01-29T00:37:47.488Z,11.82
2023-01-29T00:40:16.544Z,13.00
2023-01-29T00:43:04.529Z,12.38
2023-01-29T00:45:33.066Z,10.80
2023-01-29T00:48:01.578Z,11.70
2023-01-29T00:50:30.620Z,11.18
2023-01-29T00:53:00.664Z,10.55
2023-01-29T00:55:29.252Z,11.10
2023-01-29T00:57:57.703Z,10.80
2023-01-29T01:00:26.371Z,11.30
2023-01-29T01:03:05.926Z,9.57
2023-01-29T01:05:34.761Z,9.27
2023-01-29T01:08:24.778Z,8.98
2023-01-29T01:11:01.157Z,8.35
2023-01-29T01:13:30.263Z,8.73
2023-01-29T01:15:59.000Z,8.88
2023-01-29T01:18:31.009Z,9.27
2023-01-29T01:21:00.362Z,9.65
2023-01-29T01:23:30.394Z,7.43
2023-01-29T01:25:59.375Z,8.07
2023-01-29T01:28:28.039Z,9.70
2023-01-29T01:30:56.917Z,10.75
2023-01-29T01:33:25.616Z,10.02
2023-01-29T01:35:54.066Z,9.80
2023-01-29T01:38:22.773Z,9.93
2023-01-29T01:40:52.839Z,9.10
2023-01-29T01:43:21.346Z,10.88
2023-01-29T01:45:50.079Z,10.13
2023-01-29T01:48:23.075Z,10.65
2023-01-29T01:50:55.310Z,11.32
2023-01-29T01:53:30.677Z,11.85
2023-01-29T01:56:05.305Z,10.45
2023-01-29T01:58:37.598Z,19.05
2023-01-29T02:01:08.667Z,12.13
2023-01-29T02:03:59.944Z,11.75
2023-01-29T02:06:46.473Z,13.32
2023-01-29T02:09:35.586Z,11.00
2023-01-29T02:12:08.816Z,11.73
2023-01-29T02:14:40.518Z,14.05
2023-01-29T02:17:11.763Z,15.68
2023-01-29T02:19:49.308Z,15.30
2023-01-29T02:22:42.468Z,14.73
2023-01-29T02:26:19.114Z,13.52
2023-01-29T02:28:52.911Z,12.23
2023-01-29T02:31:29.651Z,12.43
2023-01-29T02:34:10.531Z,12.93
2023-01-29T02:36:48.107Z,12.82
2023-01-29T02:39:25.017Z,11.27
2023-01-29T02:42:02.783Z,11.82
2023-01-29T02:44:39.916Z,12.57
2023-01-29T02:47:18.392Z,12.27
2023-01-29T02:49:51.231Z,12.93
2023-01-29T02:52:26.368Z,11.85
2023-01-29T02:55:02.891Z,11.73
2023-01-29T02:57:36.328Z,11.07
2023-01-29T03:00:11.899Z,12.90
2023-01-29T03:02:47.094Z,12.48
2023-01-29T03:05:23.355Z,11.48
2023-01-29T03:07:57.705Z,10.93
2023-01-29T03:10:33.558Z,12.00
2023-01-29T03:13:06.769Z,11.60
2023-01-29T03:15:42.620Z,10.48
2023-01-29T03:18:15.737Z,10.63
2023-01-29T03:20:49.278Z,10.52
2023-01-29T03:23:27.353Z,9.43
2023-01-29T03:26:18.165Z,11.43
2023-01-29T03:29:06.585Z,9.65
2023-01-29T03:31:55.440Z,10.93
2023-01-29T03:34:34.852Z,11.25
2023-01-29T03:37:07.803Z,11.65
2023-01-29T03:39:36.977Z,11.07
2023-01-29T03:42:14.195Z,9.30
2023-01-29T03:44:55.414Z,9.32
2023-01-29T03:47:35.863Z,8.18
2023-01-29T03:50:11.456Z,9.82
2023-01-29T03:52:46.591Z,10.30
2023-01-29T03:55:19.557Z,8.75
2023-01-29T03:57:57.417Z,7.32
2023-01-29T04:00:31.819Z,8.68
2023-01-29T04:03:10.347Z,9.05
2023-01-29T04:05:46.274Z,6.93
2023-01-29T04:08:22.839Z,7.00
2023-01-29T04:10:53.373Z,7.65
2023-01-29T04:13:22.716Z,7.30
2023-01-29T04:15:57.832Z,7.07
2023-01-29T04:18:28.062Z,7.97
2023-01-29T04:20:56.802Z,6.93
2023-01-29T04:23:28.195Z,7.50
2023-01-29T04:26:21.739Z,6.97
2023-01-29T04:29:06.600Z,8.60
2023-01-29T04:31:45.270Z,8.10
2023-01-29T04:34:26.983Z,8.40
2023-01-29T04:37:07.691Z,8.82
2023-01-29T04:39:50.893Z,6.55
2023-01-29T04:42:28.768Z,7.85
2023-01-29T04:45:04.773Z,7.43
2023-01-29T04:47:41.186Z,7.35
2023-01-29T04:50:18.520Z,7.68
2023-01-29T04:52:57.645Z,6.97
2023-01-29T04:55:36.188Z,6.53
2023-01-29T04:58:12.838Z,7.38
2023-01-29T05:00:45.117Z,7.50
2023-01-29T05:03:16.778Z,6.38
2023-01-29T05:05:49.551Z,7.82
2023-01-29T05:08:22.253Z,7.13
2023-01-29T05:10:54.025Z,7.47
2023-01-29T05:13:24.400Z,7.07
2023-01-29T05:15:58.935Z,7.25
2023-01-29T05:18:27.616Z,8.23
2023-01-29T05:20:58.755Z,7.38
2023-01-29T05:23:27.376Z,7.65
2023-01-29T05:25:57.947Z,6.38
2023-01-29T05:28:25.417Z,7.28
2023-01-29T05:30:56.566Z,6.60
2023-01-29T05:33:27.461Z,7.57
2023-01-29T05:35:59.472Z,7.35
2023-01-29T05:38:28.053Z,7.43
2023-01-29T05:40:56.483Z,8.48
2023-01-29T05:43:26.253Z,7.10
2023-01-29T05:45:55.950Z,9.02
2023-01-29T05:48:24.863Z,6.90
2023-01-29T05:50:53.693Z,6.80
2023-01-29T05:53:23.537Z,7.53
2023-01-29T05:55:52.245Z,7.15
2023-01-29T05:58:20.720Z,7.45
2023-01-29T06:00:49.159Z,6.32
2023-01-29T06:03:17.700Z,7.65
2023-01-29T06:05:46.542Z,6.85
2023-01-29T06:08:14.965Z,6.95
2023-01-29T06:10:44.748Z,8.02
2023-01-29T06:13:13.405Z,7.13
2023-01-29T06:15:42.068Z,7.85
2023-01-29T06:18:10.541Z,6.75
2023-01-29T06:20:38.999Z,6.13
2023-01-29T06:23:07.714Z,6.20
2023-01-29T06:25:36.190Z,6.63
2023-01-29T06:28:06.556Z,6.28
2023-01-29T06:30:35.544Z,7.88
2023-01-29T06:33:04.021Z,6.60
2023-01-29T06:35:32.681Z,7.80
2023-01-29T06:38:01.113Z,7.60
2023-01-29T06:40:29.899Z,6.13
2023-01-29T06:42:58.361Z,6.93
2023-01-29T06:45:28.528Z,6.53
2023-01-29T06:47:59.932Z,6.07
2023-01-29T06:50:29.988Z,6.55
2023-01-29T06:53:00.457Z,6.55
2023-01-29T06:55:28.891Z,8.30
2023-01-29T06:57:57.329Z,6.15
2023-01-29T07:00:27.230Z,7.32
2023-01-29T07:02:56.158Z,7.20
2023-01-29T07:05:24.578Z,6.80
2023-01-29T07:07:52.996Z,6.60
2023-01-29T07:10:21.971Z,7.93
2023-01-29T07:12:50.507Z,8.30
2023-01-29T07:15:21.568Z,7.68
2023-01-29T07:18:03.990Z,7.30
2023-01-29T07:20:33.039Z,8.05
2023-01-29T07:23:01.502Z,7.53
2023-01-29T07:25:30.687Z,7.45
2023-01-29T07:28:02.323Z,8.05
2023-01-29T07:30:31.176Z,7.85
2023-01-29T07:33:07.370Z,7.47
2023-01-29T07:35:40.010Z,8.32
2023-01-29T07:38:09.508Z,8.60
2023-01-29T07:40:38.086Z,8.18
2023-01-29T07:43:08.698Z,7.40
2023-01-29T07:45:39.476Z,8.48
2023-01-29T07:48:13.141Z,7.90
2023-01-29T07:50:44.039Z,9.82
2023-01-29T07:53:15.908Z,10.07
2023-01-29T07:55:46.451Z,9.40
2023-01-29T07:58:14.991Z,12.15
2023-01-29T08:00:43.754Z,10.50
2023-01-29T08:03:16.393Z,8.25
2023-01-29T08:05:45.434Z,7.25
2023-01-29T08:08:14.757Z,6.43
2023-01-29T08:10:43.737Z,6.30
2023-01-29T08:13:12.245Z,7.07
2023-01-29T08:15:44.203Z,6.10
2023-01-29T08:18:14.681Z,7.05
2023-01-29T08:20:43.461Z,8.50
2023-01-29T08:23:15.922Z,9.73
2023-01-29T08:25:44.521Z,7.13
2023-01-29T08:28:13.448Z,7.35
2023-01-29T08:30:41.999Z,7.45
2023-01-29T08:33:10.661Z,6.70
2023-01-29T08:35:41.297Z,9.15
2023-01-29T08:38:11.529Z,7.10
2023-01-29T08:40:40.086Z,6.68
2023-01-29T08:43:11.734Z,7.85
2023-01-29T08:45:43.190Z,8.55
2023-01-29T08:48:12.451Z,6.55
2023-01-29T08:50:42.281Z,6.78
2023-01-29T08:53:11.770Z,6.70
2023-01-29T08:55:41.541Z,6.35
2023-01-29T08:58:12.821Z,5.72
2023-01-29T09:00:41.419Z,6.15
2023-01-29T09:03:10.363Z,7.32
2023-01-29T09:05:41.816Z,7.00
2023-01-29T09:08:11.440Z,6.55
2023-01-29T09:10:40.127Z,6.20
2023-01-29T09:13:08.833Z,6.13
2023-01-29T09:15:37.274Z,5.80
2023-01-29T09:18:06.976Z,8.38
2023-01-29T09:20:37.932Z,10.65
2023-01-29T09:23:09.278Z,7.57
2023-01-29T09:25:39.006Z,6.57
2023-01-29T09:28:07.995Z,7.78
2023-01-29T09:30:38.255Z,11.10
2023-01-29T09:33:07.322Z,7.03
2023-01-29T09:35:36.162Z,6.05
2023-01-29T09:38:04.697Z,7.05
2023-01-29T09:40:48.729Z,6.53
2023-01-29T09:43:22.703Z,6.97
2023-01-29T09:45:59.547Z,6.50
2023-01-29T09:48:33.450Z,6.45
2023-01-29T09:51:06.756Z,6.63
2023-01-29T09:53:41.748Z,6.22
2023-01-29T09:56:17.205Z,6.55
2023-01-29T09:58:46.118Z,6.50
2023-01-29T10:01:24.416Z,6.53
2023-01-29T10:04:30.600Z,6.72
2023-01-29T10:07:16.809Z,6.60
2023-01-29T10:10:17.376Z,6.15
2023-01-29T10:13:06.817Z,8.52
2023-01-29T10:15:53.642Z,7.35
2023-01-29T10:19:00.455Z,9.85
2023-01-29T10:22:22.651Z,12.93
2023-01-29T10:24:57.546Z,10.43
2023-01-29T10:27:34.598Z,19.67
2023-01-29T10:30:10.419Z,10.00
2023-01-29T10:32:39.563Z,7.60
2023-01-29T10:35:25.570Z,6.57
2023-01-29T10:37:55.117Z,6.65
2023-01-29T10:40:28.584Z,6.00
2023-01-29T10:43:04.575Z,5.90
2023-01-29T10:45:42.938Z,7.28
2023-01-29T10:48:46.097Z,9.05
2023-01-29T10:51:37.184Z,7.68
2023-01-29T10:54:29.673Z,6.85
2023-01-29T10:57:12.235Z,6.72
2023-01-29T11:00:07.295Z,7.18
2023-01-29T11:02:37.157Z,6.20
2023-01-29T11:05:10.321Z,6.95
2023-01-29T11:07:38.803Z,7.32
2023-01-29T11:10:14.326Z,7.65
2023-01-29T11:12:43.913Z,6.43
2023-01-29T11:15:20.631Z,6.70
2023-01-29T11:18:14.289Z,7.20
2023-01-29T11:20:44.183Z,7.47
2023-01-29T11:23:36.403Z,9.73
2023-01-29T11:26:07.131Z,7.38
2023-01-29T11:28:40.980Z,8.05
2023-01-29T11:31:28.221Z,9.02
2023-01-29T11:34:07.818Z,7.65
2023-01-29T11:36:38.379Z,6.95
2023-01-29T11:39:17.579Z,6.40
2023-01-29T11:41:50.936Z,6.80
2023-01-29T11:44:29.168Z,6.75
2023-01-29T11:47:08.267Z,8.00
2023-01-29T11:49:39.366Z,6.05
2023-01-29T11:52:10.550Z,6.35
2023-01-29T11:54:46.452Z,6.95
2023-01-29T11:57:30.669Z,7.00
2023-01-29T12:00:03.311Z,6.72
2023-01-29T12:02:37.368Z,6.35
2023-01-29T12:05:17.792Z,8.98
2023-01-29T12:07:49.777Z,9.93
2023-01-29T12:10:36.586Z,7.50
2023-01-29T12:13:27.196Z,8.27
2023-01-29T12:16:16.954Z,7.95
2023-01-29T12:18:52.138Z,8.23
2023-01-29T12:21:31.758Z,7.07
2023-01-29T12:24:07.140Z,6.80
2023-01-29T12:26:39.605Z,7.72
2023-01-29T12:29:30.116Z,16.70
2023-01-29T12:32:08.791Z,13.52
2023-01-29T12:34:46.959Z,9.07
2023-01-29T12:37:25.140Z,12.10
2023-01-29T12:39:53.864Z,12.02
2023-01-29T12:42:24.242Z,12.02
2023-01-29T12:44:58.221Z,10.70
2023-01-29T12:47:34.461Z,8.02
2023-01-29T12:50:08.599Z,7.97
2023-01-29T12:52:44.022Z,6.90
2023-01-29T12:55:20.055Z,7.00
2023-01-29T12:57:56.092Z,6.15
2023-01-29T13:00:28.105Z,7.28
2023-01-29T13:03:03.032Z,6.10
2023-01-29T13:05:38.887Z,8.02
2023-01-29T13:08:12.197Z,7.47
2023-01-29T13:10:49.090Z,7.85
2023-01-29T13:13:34.676Z,7.25
2023-01-29T13:16:08.820Z,7.13
2023-01-29T13:18:46.508Z,6.38
2023-01-29T13:21:18.681Z,6.82
2023-01-29T13:23:54.017Z,6.75
2023-01-29T13:26:23.926Z,6.72
2023-01-29T13:28:53.756Z,6.95
2023-01-29T13:31:31.638Z,8.00
2023-01-29T13:34:14.591Z,8.75
2023-01-29T13:36:46.569Z,7.60
2023-01-29T13:39:28.182Z,10.05
2023-01-29T13:41:58.698Z,7.95
2023-01-29T13:44:30.585Z,7.20
2023-01-29T13:47:02.762Z,8.25
2023-01-29T13:49:38.636Z,7.95
2023-01-29T13:52:30.019Z,7.80
2023-01-29T13:55:05.211Z,7.82
2023-01-29T13:57:50.125Z,6.40
2023-01-29T14:00:55.028Z,7.03
2023-01-29T14:04:04.055Z,8.73
2023-01-29T14:06:46.899Z,7.97
2023-01-29T14:10:14.417Z,8.13
2023-01-29T14:12:45.793Z,6.75
2023-01-29T14:15:29.832Z,6.30
2023-01-29T14:18:21.181Z,7.32
2023-01-29T14:21:02.990Z,6.30
2023-01-29T14:23:46.134Z,7.15
2023-01-29T14:26:28.459Z,6.53
2023-01-29T14:29:08.578Z,7.05
2023-01-29T14:31:48.439Z,6.82
2023-01-29T14:34:25.232Z,6.55
2023-01-29T14:36:58.151Z,6.05
2023-01-29T14:39:42.631Z,6.60
2023-01-29T14:42:24.362Z,7.30
2023-01-29T14:45:11.577Z,7.10
2023-01-29T14:47:59.613Z,7.00
2023-01-29T14:50:52.376Z,8.93
2023-01-29T14:53:30.949Z,7.97
2023-01-29T14:56:05.083Z,7.88
2023-01-29T14:58:40.564Z,8.40
2023-01-29T15:01:24.668Z,8.73
2023-01-29T15:04:04.572Z,8.45
2023-01-29T15:06:43.071Z,9.60
2023-01-29T15:09:16.678Z,9.32
2023-01-29T15:12:00.012Z,8.38
2023-01-29T15:14:35.332Z,10.60
2023-01-29T15:17:23.687Z,10.50
2023-01-29T15:19:52.134Z,9.70
2023-01-29T15:22:23.339Z,9.52
2023-01-29T15:25:07.390Z,9.13
2023-01-29T15:27:36.221Z,11.45
2023-01-29T15:30:09.227Z,10.02
2023-01-29T15:32:40.330Z,11.20
2023-01-29T15:35:11.738Z,28.73
2023-01-29T15:37:41.347Z,12.48
2023-01-29T15:40:17.788Z,11.27
2023-01-29T15:42:48.793Z,10.38
2023-01-29T15:45:29.335Z,12.20
2023-01-29T15:48:03.042Z,10.70
2023-01-29T15:50:34.154Z,9.35
2023-01-29T15:53:08.314Z,9.77
2023-01-29T15:55:37.277Z,11.20
2023-01-29T15:58:06.089Z,8.95
2023-01-29T16:00:36.157Z,8.68
2023-01-29T16:03:16.355Z,9.48
2023-01-29T16:05:45.493Z,10.00
2023-01-29T16:08:16.493Z,11.80
2023-01-29T16:10:47.304Z,12.25
2023-01-29T16:13:22.531Z,13.05
2023-01-29T16:16:00.794Z,12.30
2023-01-29T16:18:35.162Z,15.02
2023-01-29T16:21:08.780Z,14.13
2023-01-29T16:23:42.556Z,15.13
2023-01-29T16:26:17.676Z,13.60
2023-01-29T16:28:47.601Z,17.42
2023-01-29T16:31:24.526Z,13.80
2023-01-29T16:33:53.140Z,14.02
2023-01-29T16:36:25.002Z,16.02
2023-01-29T16:38:59.963Z,13.27
2023-01-29T16:41:33.671Z,14.30
2023-01-29T16:44:04.865Z,16.17
2023-01-29T16:46:39.385Z,15.48
2023-01-29T16:49:44.866Z,16.30
2023-01-29T16:52:21.776Z,15.50
2023-01-29T16:54:50.300Z,14.15
2023-01-29T16:57:24.522Z,19.13
2023-01-29T16:59:55.882Z,16.48
2023-01-29T17:02:30.087Z,17.23
2023-01-29T17:05:02.788Z,19.80
2023-01-29T17:07:33.615Z,14.63
2023-01-29T17:10:05.013Z,15.63
2023-01-29T17:12:37.277Z,15.85
2023-01-29T17:15:34.092Z,15.38
2023-01-29T17:18:04.785Z,19.13
2023-01-29T17:20:33.572Z,15.45
2023-01-29T17:23:02.031Z,14.32
2023-01-29T17:25:30.659Z,16.15
2023-01-29T17:28:02.600Z,17.75
2023-01-29T17:30:34.857Z,14.25
2023-01-29T17:33:13.813Z,16.65
2023-01-29T17:35:43.939Z,16.73
2023-01-29T17:38:25.494Z,14.60
2023-01-29T17:40:58.432Z,18.55
2023-01-29T17:43:26.885Z,17.33
2023-01-29T17:45:55.461Z,17.38
2023-01-29T17:48:28.079Z,16.20
2023-01-29T17:50:59.937Z,17.45
2023-01-29T17:53:43.328Z,15.95
2023-01-29T17:56:18.011Z,15.63
2023-01-29T17:58:46.486Z,16.98
2023-01-29T18:01:14.975Z,18.45
2023-01-29T18:03:44.919Z,17.27
2023-01-29T18:06:23.440Z,19.38
2023-01-29T18:08:51.861Z,18.15
2023-01-29T18:11:20.288Z,16.75
2023-01-29T18:13:48.746Z,17.20
2023-01-29T18:16:18.449Z,19.75
2023-01-29T18:18:48.430Z,18.17
2023-01-29T18:21:16.952Z,17.83
2023-01-29T18:23:45.513Z,18.30
2023-01-29T18:26:14.533Z,16.00
2023-01-29T18:28:43.780Z,19.33
2023-01-29T18:31:14.090Z,17.30
2023-01-29T18:33:43.084Z,20.52
2023-01-29T18:36:13.000Z,15.90
2023-01-29T18:38:41.792Z,16.20
2023-01-29T18:41:12.144Z,16.55
2023-01-29T18:43:41.295Z,17.75
2023-01-29T18:46:10.311Z,16.30
2023-01-29T18:48:40.915Z,18.60
2023-01-29T18:51:10.240Z,15.77
2023-01-29T18:53:40.282Z,16.65
2023-01-29T18:56:10.706Z,15.30
2023-01-29T18:58:40.131Z,15.30
2023-01-29T19:01:14.683Z,16.03
2023-01-29T19:03:43.451Z,15.88
2023-01-29T19:06:13.442Z,16.30
2023-01-29T19:08:44.466Z,14.85
2023-01-29T19:11:12.992Z,14.57
2023-01-29T19:13:42.880Z,19.67
2023-01-29T19:16:12.688Z,15.48
2023-01-29T19:18:41.533Z,16.65
2023-01-29T19:21:12.442Z,13.77
2023-01-29T19:23:43.282Z,21.02
2023-01-29T19:26:13.530Z,17.23
2023-01-29T19:28:42.667Z,19.00
2023-01-29T19:31:11.448Z,17.52
2023-01-29T19:33:40.728Z,22.10
2023-01-29T19:36:10.351Z,18.15
2023-01-29T19:38:39.858Z,16.43
2023-01-29T19:41:09.987Z,17.48
2023-01-29T19:43:41.900Z,15.88
2023-01-29T19:46:10.960Z,17.35
2023-01-29T19:48:39.711Z,18.17
2023-01-29T19:51:11.025Z,20.87
2023-01-29T19:53:40.927Z,18.48
2023-01-29T19:56:12.969Z,19.33
2023-01-29T19:58:42.065Z,16.83
2023-01-29T20:01:17.142Z,16.20
2023-01-29T20:03:47.862Z,16.47
2023-01-29T20:06:18.698Z,17.48
2023-01-29T20:08:47.985Z,16.63
2023-01-29T20:11:20.785Z,16.58
2023-01-29T20:13:50.620Z,15.75
2023-01-29T20:16:20.428Z,15.93
2023-01-29T20:18:49.018Z,14.70
2023-01-29T20:21:20.750Z,16.40
2023-01-29T20:23:51.576Z,14.88
2023-01-29T20:26:22.457Z,15.65
2023-01-29T20:28:51.385Z,13.77
2023-01-29T20:31:20.117Z,16.55
2023-01-29T20:33:48.650Z,16.95
2023-01-29T20:36:17.375Z,14.75
2023-01-29T20:38:46.961Z,15.90
2023-01-29T20:41:17.716Z,18.47
2023-01-29T20:43:50.201Z,15.02
2023-01-29T20:46:19.375Z,18.88
2023-01-29T20:48:49.136Z,16.50
2023-01-29T20:51:18.594Z,17.02
2023-01-29T20:53:48.806Z,17.67
2023-01-29T20:56:23.261Z,16.77
2023-01-29T20:59:09.380Z,15.10
2023-01-29T21:01:38.175Z,15.40
2023-01-29T21:04:06.680Z,16.20
2023-01-29T21:06:35.194Z,14.90
2023-01-29T21:09:03.895Z,17.33
2023-01-29T21:11:33.457Z,16.55
2023-01-29T21:14:02.207Z,14.77
2023-01-29T21:16:32.126Z,14.77
2023-01-29T21:19:00.797Z,13.53
2023-01-29T21:21:29.241Z,16.05
2023-01-29T21:23:58.279Z,16.55
2023-01-29T21:26:26.853Z,17.13
2023-01-29T21:28:55.309Z,17.58
2023-01-29T21:31:23.825Z,20.53
2023-01-29T21:33:53.725Z,20.27
2023-01-29T21:36:22.287Z,22.30
2023-01-29T21:38:51.018Z,19.80
2023-01-29T21:41:19.469Z,18.27
2023-01-29T21:43:46.895Z,18.60
2023-01-29T21:46:16.401Z,18.90
2023-01-29T21:48:44.854Z,21.45
2023-01-29T21:51:15.655Z,17.77
2023-01-29T21:53:45.243Z,19.35
2023-01-29T21:56:19.759Z,16.90
2023-01-29T21:58:49.277Z,19.35
2023-01-29T22:01:36.916Z,29.38
2023-01-29T22:04:08.409Z,21.83
2023-01-29T22:06:38.283Z,20.60
2023-01-29T22:09:06.895Z,18.60
2023-01-29T22:11:35.468Z,17.90
2023-01-29T22:14:04.200Z,23.50
2023-01-29T22:16:32.638Z,19.02
2023-01-29T22:19:01.351Z,17.90
2023-01-29T22:21:29.800Z,17.93
2023-01-29T22:23:59.807Z,20.55
2023-01-29T22:26:29.659Z,21.17
2023-01-29T22:28:58.701Z,21.88
2023-01-29T22:31:27.155Z,18.90
2023-01-29T22:33:55.589Z,21.03
2023-01-29T22:36:24.041Z,22.67
2023-01-29T22:38:52.986Z,28.75
2023-01-29T22:41:22.815Z,19.58
2023-01-29T22:43:51.560Z,22.38
2023-01-29T22:46:20.051Z,21.07
2023-01-29T22:48:48.733Z,19.65
2023-01-29T22:51:17.208Z,16.35
2023-01-29T22:53:51.683Z,19.67
2023-01-29T22:56:25.284Z,20.83
2023-01-29T22:58:54.882Z,21.57
2023-01-29T23:01:26.065Z,19.67
2023-01-29T23:03:54.886Z,21.95
2023-01-29T23:06:23.606Z,21.13
2023-01-29T23:08:52.776Z,20.90
2023-01-29T23:11:23.875Z,17.23
2023-01-29T23:13:54.293Z,17.27
2023-01-29T23:16:27.750Z,19.33
2023-01-29T23:18:57.330Z,22.70
2023-01-29T23:21:27.267Z,17.70
2023-01-29T23:23:58.372Z,16.17
2023-01-29T23:26:46.603Z,19.88
2023-01-29T23:29:15.910Z,18.42
2023-01-29T23:31:44.391Z,18.02
2023-01-29T23:34:13.918Z,18.05
2023-01-29T23:36:42.755Z,17.83
2023-01-29T23:39:12.023Z,15.45
2023-01-29T23:41:41.830Z,13.98
2023-01-29T23:44:10.557Z,17.80
2023-01-29T23:46:39.375Z,19.25
2023-01-29T23:49:08.580Z,18.93
2023-01-29T23:51:37.170Z,17.27
2023-01-29T23:54:06.300Z,18.60
2023-01-29T23:56:35.019Z,16.13
2023-01-29T23:59:04.936Z,18.05
